createdAt,value
2018-11-14T00:01:56.558Z,7.92
2018-11-14T00:04:23.415Z,7.10
2018-11-14T00:06:50.180Z,7.67
2018-11-14T00:09:17.050Z,6.83
2018-11-14T00:11:43.914Z,6.25
2018-11-14T00:14:10.774Z,6.00
2018-11-14T00:16:37.536Z,7.55
2018-11-14T00:19:04.511Z,7.92
2018-11-14T00:21:31.264Z,8.40
2018-11-14T00:23:58.142Z,9.90
2018-11-14T00:26:24.990Z,9.70
2018-11-14T00:28:51.875Z,7.62
2018-11-14T00:31:18.842Z,7.40
2018-11-14T00:33:45.758Z,6.62
2018-11-14T00:36:12.558Z,6.28
2018-11-14T00:38:39.534Z,6.60
2018-11-14T00:41:06.386Z,7.00
2018-11-14T00:43:33.456Z,6.80
2018-11-14T00:46:00.433Z,8.10
2018-11-14T00:48:27.294Z,7.75
2018-11-14T00:50:54.055Z,7.50
2018-11-14T00:53:20.975Z,6.58
2018-11-14T00:55:47.900Z,5.92
2018-11-14T00:58:14.863Z,6.50
2018-11-14T01:00:42.039Z,5.58
2018-11-14T01:03:09.111Z,6.03
2018-11-14T01:05:36.054Z,6.15
2018-11-14T01:08:03.161Z,6.35
2018-11-14T01:10:30.010Z,6.30
2018-11-14T01:12:56.878Z,6.00
2018-11-14T01:15:24.100Z,6.90
2018-11-14T01:17:51.115Z,6.70
2018-11-14T01:20:18.052Z,7.90
2018-11-14T01:22:44.893Z,7.80
2018-11-14T01:25:11.787Z,8.90
2018-11-14T01:27:38.842Z,8.10
2018-11-14T01:30:05.883Z,7.95
2018-11-14T01:32:33.056Z,8.58
2018-11-14T01:34:59.863Z,10.68
2018-11-14T01:37:26.491Z,11.63
2018-11-14T01:39:53.490Z,11.03
2018-11-14T01:42:20.264Z,11.60
2018-11-14T01:44:47.476Z,11.35
2018-11-14T01:47:14.407Z,9.08
2018-11-14T01:49:41.381Z,8.00
2018-11-14T01:52:08.124Z,7.22
2018-11-14T01:54:35.252Z,8.23
2018-11-14T01:57:02.271Z,7.70
2018-11-14T01:59:29.019Z,7.70
2018-11-14T02:01:55.992Z,8.33
2018-11-14T02:04:22.938Z,8.48
2018-11-14T02:06:49.854Z,8.00
2018-11-14T02:09:16.700Z,6.95
2018-11-14T02:11:43.630Z,8.00
2018-11-14T02:14:11.611Z,7.50
2018-11-14T02:16:38.532Z,6.17
2018-11-14T02:19:05.467Z,6.87
2018-11-14T02:21:33.289Z,6.95
2018-11-14T02:24:00.121Z,6.72
2018-11-14T02:26:26.960Z,7.55
2018-11-14T02:28:54.274Z,6.92
2018-11-14T02:31:21.158Z,7.75
2018-11-14T02:33:48.007Z,7.47
2018-11-14T02:36:15.273Z,6.12
2018-11-14T02:38:42.197Z,7.22
2018-11-14T02:41:09.324Z,6.60
2018-11-14T02:43:36.379Z,6.75
2018-11-14T02:46:03.259Z,5.60
2018-11-14T02:48:31.319Z,5.60
2018-11-14T02:50:58.381Z,6.25
2018-11-14T02:53:25.325Z,8.83
2018-11-14T02:55:52.570Z,9.98
2018-11-14T02:58:20.383Z,11.70
2018-11-14T03:00:47.287Z,9.58
2018-11-14T03:03:14.406Z,7.70
2018-11-14T03:05:41.782Z,9.75
2018-11-14T03:08:09.965Z,9.40
2018-11-14T03:10:36.995Z,10.32
2018-11-14T03:13:04.685Z,8.95
2018-11-14T03:15:31.711Z,9.60
2018-11-14T03:17:58.563Z,8.78
2018-11-14T03:20:26.019Z,8.23
2018-11-14T03:22:53.217Z,7.95
2018-11-14T03:25:20.572Z,7.42
2018-11-14T03:27:47.564Z,7.20
2018-11-14T03:30:14.576Z,7.05
2018-11-14T03:32:41.794Z,6.58
2018-11-14T03:35:09.020Z,6.22
2018-11-14T03:37:36.210Z,8.35
2018-11-14T03:40:03.273Z,6.67
2018-11-14T03:42:30.253Z,6.30
2018-11-14T03:44:57.211Z,6.87
2018-11-14T03:47:24.462Z,5.83
2018-11-14T03:49:51.373Z,6.25
2018-11-14T03:52:18.350Z,6.80
2018-11-14T03:54:45.572Z,6.33
2018-11-14T03:57:12.548Z,6.28
2018-11-14T03:59:39.557Z,6.65
2018-11-14T04:02:06.864Z,7.10
2018-11-14T04:04:33.791Z,5.90
2018-11-14T04:07:00.613Z,5.92
2018-11-14T04:09:27.495Z,6.58
2018-11-14T04:11:54.632Z,6.85
2018-11-14T04:14:21.778Z,6.25
2018-11-14T04:16:48.526Z,7.10
2018-11-14T04:19:15.566Z,5.37
2018-11-14T04:21:42.824Z,6.60
2018-11-14T04:24:09.870Z,5.87
2018-11-14T04:26:36.772Z,5.55
2018-11-14T04:29:03.768Z,5.40
2018-11-14T04:31:31.327Z,5.75
2018-11-14T04:33:58.206Z,4.83
2018-11-14T04:36:25.098Z,4.55
2018-11-14T04:38:51.787Z,5.15
2018-11-14T04:41:18.774Z,5.20
2018-11-14T04:43:45.643Z,4.58
2018-11-14T04:46:12.637Z,4.50
2018-11-14T04:48:39.753Z,4.30
2018-11-14T04:51:06.679Z,5.00
2018-11-14T04:53:33.462Z,4.17
2018-11-14T04:56:00.552Z,5.25
2018-11-14T04:58:27.512Z,4.55
2018-11-14T05:00:54.591Z,4.83
2018-11-14T05:03:21.711Z,4.20
2018-11-14T05:05:48.558Z,3.87
2018-11-14T05:08:15.808Z,4.00
2018-11-14T05:10:42.754Z,6.00
2018-11-14T05:13:09.799Z,4.83
2018-11-14T05:15:36.630Z,5.42
2018-11-14T05:18:03.597Z,5.35
2018-11-14T05:20:30.640Z,5.55
2018-11-14T05:22:57.696Z,5.97
2018-11-14T05:25:24.751Z,6.65
2018-11-14T05:27:51.570Z,6.17
2018-11-14T05:30:18.736Z,5.70
2018-11-14T05:32:45.777Z,5.25
2018-11-14T05:35:12.931Z,5.33
2018-11-14T05:37:39.777Z,5.10
2018-11-14T05:40:06.644Z,5.30
2018-11-14T05:42:33.516Z,5.53
2018-11-14T05:45:00.472Z,4.37
2018-11-14T05:47:27.453Z,6.65
2018-11-14T05:49:54.233Z,5.12
2018-11-14T05:52:21.092Z,5.37
2018-11-14T05:54:48.513Z,5.10
2018-11-14T05:57:15.778Z,4.80
2018-11-14T05:59:42.812Z,4.58
2018-11-14T06:02:09.709Z,5.78
2018-11-14T06:04:36.469Z,4.97
2018-11-14T06:07:03.783Z,4.70
2018-11-14T06:09:30.837Z,4.75
2018-11-14T06:11:57.740Z,4.30
2018-11-14T06:14:24.569Z,4.70
2018-11-14T06:16:51.509Z,4.90
2018-11-14T06:19:18.433Z,6.17
2018-11-14T06:21:45.719Z,5.75
2018-11-14T06:24:12.649Z,5.60
2018-11-14T06:26:39.712Z,5.97
2018-11-14T06:29:06.486Z,6.20
2018-11-14T06:31:33.706Z,6.12
2018-11-14T06:34:00.569Z,4.40
2018-11-14T06:36:27.580Z,4.65
2018-11-14T06:38:54.433Z,5.97
2018-11-14T06:41:21.474Z,5.92
2018-11-14T06:43:48.571Z,6.25
2018-11-14T06:46:15.653Z,6.60
2018-11-14T06:48:42.492Z,6.55
2018-11-14T06:51:09.359Z,6.08
2018-11-14T06:53:36.210Z,6.20
2018-11-14T06:56:03.160Z,5.50
2018-11-14T06:58:30.073Z,6.80
2018-11-14T07:00:57.139Z,6.87
2018-11-14T07:03:24.140Z,6.12
2018-11-14T07:05:51.355Z,7.45
2018-11-14T07:08:18.606Z,7.75
2018-11-14T07:10:45.644Z,7.50
2018-11-14T07:13:12.491Z,8.90
2018-11-14T07:15:39.854Z,8.45
2018-11-14T07:18:06.808Z,8.08
2018-11-14T07:20:33.732Z,8.68
2018-11-14T07:23:00.649Z,7.67
2018-11-14T07:25:27.412Z,10.10
2018-11-14T07:27:54.333Z,8.20
2018-11-14T07:30:21.274Z,9.50
2018-11-14T07:32:48.199Z,8.55
2018-11-14T07:35:16.198Z,8.60
2018-11-14T07:37:43.483Z,7.85
2018-11-14T07:40:10.252Z,7.83
2018-11-14T07:42:37.061Z,8.10
2018-11-14T07:45:03.811Z,6.83
2018-11-14T07:47:30.548Z,7.33
2018-11-14T07:49:57.309Z,7.87
2018-11-14T07:52:24.651Z,8.18
2018-11-14T07:54:52.401Z,8.90
2018-11-14T07:57:19.465Z,7.78
2018-11-14T07:59:46.389Z,9.05
2018-11-14T08:02:13.316Z,8.90
2018-11-14T08:04:39.987Z,9.70
2018-11-14T08:07:06.813Z,8.05
2018-11-14T08:09:33.679Z,8.58
2018-11-14T08:12:00.598Z,8.80
2018-11-14T08:14:27.772Z,10.03
2018-11-14T08:16:54.655Z,8.75
2018-11-14T08:19:21.421Z,9.13
2018-11-14T08:21:48.560Z,7.70
2018-11-14T08:24:15.609Z,9.53
2018-11-14T08:26:42.401Z,9.63
2018-11-14T08:29:09.239Z,9.40
2018-11-14T08:31:36.350Z,10.18
2018-11-14T08:34:03.311Z,8.33
2018-11-14T08:36:30.290Z,8.30
2018-11-14T08:38:57.137Z,7.20
2018-11-14T08:41:24.269Z,8.43
2018-11-14T08:43:51.310Z,7.03
2018-11-14T08:46:18.192Z,7.72
2018-11-14T08:48:45.324Z,7.65
2018-11-14T08:51:12.399Z,7.35
2018-11-14T08:53:39.265Z,7.72
2018-11-14T08:56:05.937Z,8.53
2018-11-14T08:58:33.790Z,6.80
2018-11-14T09:01:00.768Z,7.47
2018-11-14T09:03:27.657Z,8.13
2018-11-14T09:05:54.761Z,7.28
2018-11-14T09:08:21.779Z,8.33
2018-11-14T09:10:48.637Z,8.48
2018-11-14T09:13:15.467Z,7.25
2018-11-14T09:15:42.451Z,13.40
2018-11-14T09:18:09.383Z,9.38
2018-11-14T09:20:37.053Z,9.70
2018-11-14T09:23:03.973Z,9.88
2018-11-14T09:25:30.716Z,8.80
2018-11-14T09:27:57.554Z,8.03
2018-11-14T09:30:24.473Z,8.43
2018-11-14T09:32:51.591Z,7.97
2018-11-14T09:35:18.658Z,8.23
2018-11-14T09:37:45.662Z,7.62
2018-11-14T09:40:12.932Z,7.95
2018-11-14T09:42:39.724Z,8.70
2018-11-14T09:45:06.674Z,8.53
2018-11-14T09:47:33.946Z,7.72
2018-11-14T09:50:00.866Z,7.47
2018-11-14T09:52:27.803Z,9.83
2018-11-14T09:54:54.574Z,8.20
2018-11-14T09:57:21.734Z,9.35
2018-11-14T09:59:48.684Z,8.25
2018-11-14T10:02:15.772Z,7.62
2018-11-14T10:04:43.199Z,7.50
2018-11-14T10:07:10.114Z,9.63
2018-11-14T10:09:36.975Z,9.30
2018-11-14T10:12:05.814Z,9.48
2018-11-14T10:14:32.878Z,8.20
2018-11-14T10:17:00.334Z,9.30
2018-11-14T10:19:27.420Z,9.75
2018-11-14T10:21:54.456Z,9.25
2018-11-14T10:24:21.419Z,9.08
2018-11-14T10:26:48.813Z,8.85
2018-11-14T10:29:16.730Z,8.63
2018-11-14T10:31:43.610Z,8.83
2018-11-14T10:34:11.348Z,8.13
2018-11-14T10:36:39.372Z,8.45
2018-11-14T10:39:06.521Z,8.80
2018-11-14T10:41:34.520Z,8.65
2018-11-14T10:44:01.460Z,10.05
2018-11-14T10:46:28.580Z,8.50
2018-11-14T10:48:55.974Z,9.05
2018-11-14T10:51:23.239Z,8.40
2018-11-14T10:53:50.355Z,8.93
2018-11-14T10:56:17.026Z,8.73
2018-11-14T10:58:44.113Z,8.70
2018-11-14T11:01:11.012Z,8.35
2018-11-14T11:03:41.072Z,8.65
2018-11-14T11:06:08.904Z,9.08
2018-11-14T11:08:36.603Z,8.53
2018-11-14T11:11:03.407Z,9.10
2018-11-14T11:13:31.224Z,7.67
2018-11-14T11:15:58.288Z,8.15
2018-11-14T11:18:25.431Z,7.72
2018-11-14T11:20:52.530Z,9.88
2018-11-14T11:23:19.636Z,8.20
2018-11-14T11:25:46.926Z,8.20
2018-11-14T11:28:14.384Z,6.70
2018-11-14T11:30:42.039Z,7.30
2018-11-14T11:33:08.894Z,5.80
2018-11-14T11:35:35.672Z,7.67
2018-11-14T11:38:02.529Z,7.30
2018-11-14T11:40:29.388Z,7.87
2018-11-14T11:42:56.248Z,7.67
2018-11-14T11:45:23.108Z,7.13
2018-11-14T11:47:50.293Z,7.10
2018-11-14T11:50:17.633Z,6.20
2018-11-14T11:52:49.839Z,6.80
2018-11-14T11:57:56.486Z,8.30
2018-11-14T12:00:23.994Z,7.30
2018-11-14T12:02:57.135Z,6.90
2018-11-14T12:21:10.907Z,7.17
2018-11-14T12:23:39.373Z,11.03
2018-11-14T12:26:06.507Z,7.80
2018-11-14T12:28:37.684Z,8.40
2018-11-14T12:31:05.628Z,7.83
2018-11-14T12:33:37.307Z,7.58
2018-11-14T12:36:05.231Z,7.08
2018-11-14T12:38:35.109Z,6.30
2018-11-14T12:41:04.291Z,6.72
2018-11-14T12:43:31.990Z,6.45
2018-11-14T12:45:59.630Z,6.53
2018-11-14T12:48:27.275Z,6.30
2018-11-14T12:50:54.802Z,6.40
2018-11-14T12:55:55.334Z,6.60
2018-11-14T12:58:22.838Z,6.12
2018-11-14T13:00:49.953Z,6.15
2018-11-14T13:03:17.528Z,5.28
2018-11-14T13:05:46.626Z,6.42
2018-11-14T13:08:15.862Z,6.45
2018-11-14T13:10:45.633Z,5.33
2018-11-14T13:13:14.533Z,5.65
2018-11-14T13:15:41.755Z,6.25
2018-11-14T13:20:44.599Z,6.75
2018-11-14T13:23:11.895Z,7.17
2018-11-14T13:25:39.562Z,6.58
2018-11-14T13:28:08.100Z,6.85
2018-11-14T13:30:38.095Z,6.20
2018-11-14T13:33:06.176Z,7.28
2018-11-14T13:35:33.975Z,7.58
2018-11-14T13:38:01.793Z,6.03
2018-11-14T13:40:29.134Z,5.95
2018-11-14T13:42:56.315Z,7.47
2018-11-14T13:45:23.595Z,7.50
2018-11-14T13:47:50.695Z,8.23
2018-11-14T13:50:19.900Z,7.72
2018-11-14T13:52:47.264Z,8.45
2018-11-14T13:55:16.455Z,7.75
2018-11-14T13:57:44.353Z,8.08
2018-11-14T14:00:11.631Z,7.95
2018-11-14T14:02:38.481Z,8.18
2018-11-14T14:05:06.412Z,8.98
2018-11-14T14:07:34.367Z,10.90
2018-11-14T14:10:02.459Z,9.90
2018-11-14T14:12:30.094Z,8.93
2018-11-14T14:14:57.529Z,9.38
2018-11-14T14:17:24.495Z,8.70
2018-11-14T14:19:51.942Z,9.78
2018-11-14T14:22:19.473Z,8.80
2018-11-14T14:24:46.827Z,9.55
2018-11-14T14:27:14.127Z,9.60
2018-11-14T14:29:41.495Z,9.40
2018-11-14T14:32:08.747Z,10.00
2018-11-14T14:34:38.525Z,9.90
2018-11-14T14:37:05.357Z,10.13
2018-11-14T14:39:32.518Z,10.13
2018-11-14T14:42:00.377Z,10.70
2018-11-14T14:44:28.041Z,10.03
2018-11-14T14:46:55.077Z,10.15
2018-11-14T14:49:22.444Z,9.75
2018-11-14T14:51:50.068Z,9.95
2018-11-14T14:54:17.183Z,9.78
2018-11-14T14:56:44.246Z,9.68
2018-11-14T14:59:11.299Z,10.32
2018-11-14T15:01:38.723Z,11.18
2018-11-14T15:04:06.881Z,11.40
2018-11-14T15:06:34.254Z,10.70
2018-11-14T15:09:01.723Z,10.40
2018-11-14T15:11:28.715Z,8.95
2018-11-14T15:13:55.871Z,10.98
2018-11-14T15:16:22.948Z,9.70
2018-11-14T15:18:49.708Z,10.80
2018-11-14T15:21:16.990Z,9.50
2018-11-14T15:23:45.154Z,9.80
2018-11-14T15:26:12.676Z,10.40
2018-11-14T15:28:39.536Z,10.93
2018-11-14T15:31:06.372Z,9.53
2018-11-14T15:33:33.886Z,11.08
2018-11-14T15:36:01.362Z,13.00
2018-11-14T15:38:28.830Z,13.95
2018-11-14T15:40:56.090Z,16.93
2018-11-14T15:43:23.799Z,15.48
2018-11-14T15:45:51.158Z,14.00
2018-11-14T15:48:18.343Z,13.93
2018-11-14T15:50:45.716Z,13.35
2018-11-14T15:53:12.559Z,13.00
2018-11-14T15:55:40.063Z,14.35
2018-11-14T15:58:07.577Z,13.18
2018-11-14T16:00:35.406Z,12.37
2018-11-14T16:03:02.817Z,11.73
2018-11-14T16:05:30.185Z,13.20
2018-11-14T16:07:58.378Z,11.50
2018-11-14T16:10:25.837Z,12.68
2018-11-14T16:12:53.719Z,13.18
2018-11-14T16:15:20.784Z,13.25
2018-11-14T16:17:48.136Z,12.80
2018-11-14T16:20:15.335Z,11.97
2018-11-14T16:22:42.595Z,13.48
2018-11-14T16:25:09.906Z,15.38
2018-11-14T16:27:36.956Z,14.10
2018-11-14T16:30:03.921Z,12.53
2018-11-14T16:32:30.959Z,13.38
2018-11-14T16:34:58.192Z,11.12
2018-11-14T16:37:25.026Z,12.20
2018-11-14T16:39:51.899Z,12.20
2018-11-14T16:42:18.752Z,12.80
2018-11-14T16:44:45.644Z,11.63
2018-11-14T16:47:12.376Z,10.98
2018-11-14T16:49:39.351Z,12.20
2018-11-14T16:52:07.178Z,11.22
2018-11-14T16:54:34.237Z,12.20
2018-11-14T16:57:01.286Z,12.23
2018-11-14T16:59:28.202Z,13.40
2018-11-14T17:01:55.198Z,11.90
2018-11-14T17:04:22.196Z,10.82
2018-11-14T17:06:49.044Z,11.88
2018-11-14T17:09:16.122Z,12.35
2018-11-14T17:11:43.097Z,10.88
2018-11-14T17:14:10.032Z,12.53
2018-11-14T17:16:37.339Z,11.50
2018-11-14T17:19:04.099Z,11.45
2018-11-14T17:21:31.116Z,12.73
2018-11-14T17:23:58.137Z,13.45
2018-11-14T17:26:25.094Z,13.22
2018-11-14T17:28:52.197Z,14.65
2018-11-14T17:31:19.118Z,13.45
2018-11-14T17:33:45.918Z,12.37
2018-11-14T17:36:12.934Z,14.35
2018-11-14T17:38:39.801Z,15.32
2018-11-14T17:41:06.634Z,15.05
2018-11-14T17:43:33.486Z,14.58
2018-11-14T17:46:00.418Z,13.90
2018-11-14T17:48:28.156Z,14.53
2018-11-14T17:50:55.441Z,14.73
2018-11-14T17:53:23.056Z,15.50
2018-11-14T17:55:49.820Z,15.32
2018-11-14T17:58:16.796Z,14.47
2018-11-14T18:00:43.757Z,15.05
2018-11-14T18:03:10.563Z,15.23
2018-11-14T18:05:37.487Z,14.70
2018-11-14T18:08:06.096Z,16.10
2018-11-14T18:10:33.365Z,15.50
2018-11-14T18:13:00.319Z,15.28
2018-11-14T18:15:27.199Z,17.07
2018-11-14T18:17:54.272Z,16.73
2018-11-14T18:20:22.256Z,18.30
2018-11-14T18:22:49.121Z,16.82
2018-11-14T18:25:16.105Z,15.05
2018-11-14T18:27:43.260Z,13.88
2018-11-14T18:30:10.296Z,14.50
2018-11-14T18:32:37.410Z,14.45
2018-11-14T18:35:04.681Z,13.93
2018-11-14T18:37:31.541Z,14.53
2018-11-14T18:39:58.390Z,15.60
2018-11-14T18:42:25.370Z,15.25
2018-11-14T18:44:52.136Z,15.10
2018-11-14T18:47:19.325Z,18.32
2018-11-14T18:49:46.370Z,14.98
2018-11-14T18:52:13.231Z,16.80
2018-11-14T18:54:40.010Z,14.85
2018-11-14T18:57:06.987Z,16.45
2018-11-14T18:59:33.818Z,15.08
2018-11-14T19:02:00.691Z,14.33
2018-11-14T19:04:28.283Z,14.87
2018-11-14T19:06:55.507Z,15.08
2018-11-14T19:09:22.515Z,15.00
2018-11-14T19:11:49.384Z,15.83
2018-11-14T19:14:16.245Z,15.70
2018-11-14T19:16:43.229Z,15.63
2018-11-14T19:19:10.392Z,16.32
2018-11-14T19:21:37.467Z,17.30
2018-11-14T19:24:04.540Z,15.78
2018-11-14T19:26:31.590Z,17.30
2018-11-14T19:28:58.612Z,15.88
2018-11-14T19:31:25.882Z,15.80
2018-11-14T19:33:52.793Z,16.52
2018-11-14T19:36:19.754Z,16.60
2018-11-14T19:38:46.640Z,18.42
2018-11-14T19:41:13.680Z,20.45
2018-11-14T19:43:40.698Z,18.05
2018-11-14T19:46:07.739Z,17.52
2018-11-14T19:48:34.999Z,17.80
2018-11-14T19:51:02.297Z,16.05
2018-11-14T19:53:29.371Z,16.48
2018-11-14T19:55:56.585Z,18.10
2018-11-14T19:58:23.480Z,16.75
2018-11-14T20:00:50.467Z,18.50
2018-11-14T20:03:17.769Z,15.45
2018-11-14T20:05:44.711Z,16.17
2018-11-14T20:08:14.547Z,16.97
2018-11-14T20:10:42.044Z,16.85
2018-11-14T20:13:09.042Z,17.15
2018-11-14T20:15:35.880Z,15.20
2018-11-14T20:18:03.062Z,15.58
2018-11-14T20:20:29.869Z,16.07
2018-11-14T20:22:56.829Z,16.30
2018-11-14T20:25:24.132Z,15.55
2018-11-14T20:27:51.167Z,16.48
2018-11-14T20:30:18.655Z,16.15
2018-11-14T20:32:45.838Z,16.82
2018-11-14T20:35:13.321Z,17.15
2018-11-14T20:37:40.579Z,18.60
2018-11-14T20:40:07.930Z,17.48
2018-11-14T20:42:34.937Z,16.10
2018-11-14T20:45:04.255Z,16.62
2018-11-14T20:47:31.628Z,17.75
2018-11-14T20:49:58.809Z,18.17
2018-11-14T20:52:26.215Z,16.70
2018-11-14T20:54:53.555Z,16.57
2018-11-14T20:57:20.614Z,16.42
2018-11-14T20:59:47.814Z,16.48
2018-11-14T21:02:15.474Z,16.42
2018-11-14T21:04:42.373Z,16.27
2018-11-14T21:07:10.594Z,16.48
2018-11-14T21:09:37.681Z,18.07
2018-11-14T21:12:04.997Z,16.80
2018-11-14T21:14:32.118Z,16.30
2018-11-14T21:16:59.338Z,17.35
2018-11-14T21:19:26.197Z,15.35
2018-11-14T21:21:53.278Z,15.25
2018-11-14T21:24:20.858Z,15.23
2018-11-14T21:26:47.722Z,16.23
2018-11-14T21:29:14.578Z,16.27
2018-11-14T21:31:41.437Z,15.13
2018-11-14T21:34:08.359Z,14.65
2018-11-14T21:36:35.378Z,13.85
2018-11-14T21:39:02.337Z,14.20
2018-11-14T21:41:29.197Z,15.15
2018-11-14T21:43:56.038Z,14.93
2018-11-14T21:46:23.238Z,13.40
2018-11-14T21:48:50.319Z,13.83
2018-11-14T21:51:17.178Z,15.23
2018-11-14T21:53:44.037Z,15.58
2018-11-14T21:56:11.125Z,14.63
2018-11-14T21:58:37.897Z,16.27
2018-11-14T22:01:04.997Z,16.15
2018-11-14T22:03:31.879Z,15.08
2018-11-14T22:05:58.778Z,14.58
2018-11-14T22:08:25.868Z,14.23
2018-11-14T22:10:52.763Z,14.90
2018-11-14T22:13:19.682Z,16.25
2018-11-14T22:15:46.662Z,14.85
2018-11-14T22:18:13.563Z,15.03
2018-11-14T22:20:40.351Z,14.63
2018-11-14T22:23:07.776Z,14.93
2018-11-14T22:25:34.729Z,14.43
2018-11-14T22:28:01.661Z,13.48
2018-11-14T22:30:28.546Z,15.25
2018-11-14T22:32:55.586Z,13.00
2018-11-14T22:35:22.455Z,14.05
2018-11-14T22:37:49.446Z,13.18
2018-11-14T22:40:16.408Z,14.93
2018-11-14T22:42:43.386Z,13.50
2018-11-14T22:45:11.155Z,14.18
2018-11-14T22:47:38.419Z,13.72
2018-11-14T22:50:05.207Z,14.98
2018-11-14T22:52:32.283Z,14.33
2018-11-14T22:54:59.339Z,14.40
2018-11-14T22:57:26.517Z,13.58
2018-11-14T22:59:53.502Z,14.35
2018-11-14T23:02:21.682Z,14.95
2018-11-14T23:04:48.748Z,15.18
2018-11-14T23:07:15.945Z,15.45
2018-11-14T23:09:43.986Z,16.55
2018-11-14T23:12:11.012Z,14.33
2018-11-14T23:14:37.875Z,15.28
2018-11-14T23:17:04.807Z,14.45
2018-11-14T23:19:32.377Z,14.43
2018-11-14T23:21:59.117Z,14.87
2018-11-14T23:24:26.033Z,13.30
2018-11-14T23:26:52.913Z,14.13
2018-11-14T23:29:20.042Z,14.68
2018-11-14T23:31:47.126Z,14.63
2018-11-14T23:34:14.351Z,14.98
2018-11-14T23:36:41.353Z,14.90
2018-11-14T23:39:08.422Z,14.05
2018-11-14T23:41:36.216Z,13.55
2018-11-14T23:44:03.554Z,15.15
2018-11-14T23:46:30.354Z,13.35
2018-11-14T23:48:57.447Z,12.63
2018-11-14T23:51:24.366Z,14.47
2018-11-14T23:53:51.542Z,12.75
2018-11-14T23:56:18.602Z,14.15
2018-11-14T23:58:45.738Z,12.05
